createdAt,value
2024-02-19T06:37:29.294Z,33.74
2024-02-19T06:38:34.618Z,33.78
2024-02-19T06:39:42.132Z,33.81
2024-02-19T06:40:48.867Z,33.82
2024-02-19T06:41:54.091Z,33.82
2024-02-19T06:43:00.805Z,33.82
2024-02-19T06:44:06.096Z,33.81
2024-02-19T06:45:13.636Z,33.81
2024-02-19T06:46:19.144Z,33.80
2024-02-19T06:47:25.775Z,33.78
2024-02-19T06:48:31.051Z,33.78
2024-02-19T06:49:37.611Z,33.79
2024-02-19T06:50:43.043Z,33.78
2024-02-19T06:51:49.561Z,33.78
2024-02-19T06:52:56.507Z,33.77
2024-02-19T06:54:03.115Z,33.79
2024-02-19T06:55:09.045Z,33.82
2024-02-19T06:56:16.317Z,33.83
2024-02-19T06:57:21.534Z,33.87
2024-02-19T06:58:28.183Z,33.88
2024-02-19T06:59:33.618Z,33.87
2024-02-19T07:00:40.312Z,33.89
2024-02-19T07:01:45.610Z,33.89
2024-02-19T07:02:52.184Z,33.90
2024-02-19T07:03:57.414Z,33.95
2024-02-19T07:05:04.510Z,33.97
2024-02-19T07:06:10.303Z,33.99
2024-02-19T07:07:17.200Z,33.99
2024-02-19T07:08:24.161Z,33.99
2024-02-19T07:09:30.706Z,33.97
2024-02-19T07:10:36.069Z,33.96
2024-02-19T07:11:42.861Z,33.96
2024-02-19T07:12:48.184Z,33.95
2024-02-19T07:13:57.970Z,33.93
2024-02-19T07:15:03.192Z,33.94
2024-02-19T07:16:10.268Z,33.94
2024-02-19T07:17:15.552Z,33.98
2024-02-19T07:18:22.118Z,34.01
2024-02-19T07:19:27.578Z,34.02
2024-02-19T07:20:34.253Z,34.01
2024-02-19T07:21:39.837Z,33.96
2024-02-19T07:22:46.367Z,33.94
2024-02-19T07:23:53.259Z,33.91
2024-02-19T07:25:09.985Z,33.90
2024-02-19T07:26:22.312Z,33.89
2024-02-19T07:27:29.414Z,33.89
2024-02-19T07:28:34.677Z,33.87
2024-02-19T07:29:41.359Z,33.86
2024-02-19T07:30:46.631Z,33.86
2024-02-19T07:31:53.816Z,33.86
2024-02-19T07:32:59.153Z,33.86
2024-02-19T07:34:05.962Z,33.88
2024-02-19T07:35:11.624Z,33.91
2024-02-19T07:36:18.376Z,33.90
2024-02-19T07:37:23.931Z,33.91
2024-02-19T07:38:30.625Z,33.91
2024-02-19T07:39:37.613Z,33.94
2024-02-19T07:40:44.449Z,33.96
2024-02-19T07:41:49.834Z,33.98
2024-02-19T07:42:56.538Z,33.98
2024-02-19T07:44:01.882Z,33.98
2024-02-19T07:45:09.030Z,34.00
2024-02-19T07:46:14.663Z,34.03
2024-02-19T07:47:21.379Z,34.04
2024-02-19T07:48:26.949Z,34.06
2024-02-19T07:49:33.962Z,34.06
2024-02-19T07:50:39.469Z,34.03
2024-02-19T07:51:46.329Z,34.01
2024-02-19T07:52:51.796Z,33.99
2024-02-19T07:53:58.425Z,33.95
2024-02-19T07:55:05.942Z,33.92
2024-02-19T07:56:12.734Z,33.89
2024-02-19T07:57:18.117Z,33.89
2024-02-19T07:58:24.802Z,33.86
2024-02-19T07:59:30.224Z,33.84
2024-02-19T08:00:37.443Z,33.79
2024-02-19T08:01:42.903Z,33.78
2024-02-19T08:02:49.537Z,33.77
2024-02-19T08:03:54.989Z,33.77
2024-02-19T08:05:02.080Z,33.80
2024-02-19T08:06:09.862Z,33.81
2024-02-19T08:07:16.599Z,33.79
2024-02-19T08:08:22.067Z,33.78
2024-02-19T08:09:28.680Z,33.77
2024-02-19T08:10:35.912Z,33.77
2024-02-19T08:11:42.712Z,33.78
2024-02-19T08:12:48.263Z,33.76
2024-02-19T08:13:55.417Z,33.77
2024-02-19T08:15:00.978Z,33.76
2024-02-19T08:16:08.261Z,33.76
2024-02-19T08:17:13.613Z,33.77
2024-02-19T08:18:20.344Z,33.77
2024-02-19T08:19:25.807Z,33.77
2024-02-19T08:20:32.567Z,33.74
2024-02-19T08:21:37.971Z,33.70
2024-02-19T08:22:46.918Z,33.68
2024-02-19T08:23:52.666Z,33.67
2024-02-19T08:24:59.458Z,33.63
2024-02-19T08:26:06.762Z,33.64
2024-02-19T08:27:13.527Z,33.66
2024-02-19T08:28:18.982Z,33.65
2024-02-19T08:29:25.610Z,33.65
2024-02-19T08:30:30.968Z,33.63
2024-02-19T08:31:37.624Z,33.59
2024-02-19T08:32:44.466Z,33.59
2024-02-19T08:33:51.550Z,33.56
2024-02-19T08:34:57.049Z,33.54
2024-02-19T08:36:04.918Z,33.52
2024-02-19T08:37:10.246Z,33.48
2024-02-19T08:38:17.619Z,33.45
2024-02-19T08:39:23.106Z,33.46
2024-02-19T08:40:29.796Z,33.46
2024-02-19T08:41:36.701Z,33.45
2024-02-19T08:42:43.262Z,33.44
2024-02-19T08:43:48.608Z,33.42
2024-02-19T08:44:55.136Z,33.45
2024-02-19T08:46:00.476Z,33.46
2024-02-19T08:47:10.455Z,33.46
2024-02-19T08:48:15.907Z,33.47
2024-02-19T08:49:22.605Z,33.48
2024-02-19T08:50:27.896Z,33.51
2024-02-19T08:51:34.488Z,33.54
2024-02-19T08:52:39.755Z,33.56
2024-02-19T08:53:49.276Z,33.55
2024-02-19T08:54:58.826Z,33.53
2024-02-19T08:56:05.513Z,33.49
2024-02-19T08:57:12.401Z,33.47
2024-02-19T08:58:19.009Z,33.49
2024-02-19T08:59:24.174Z,33.48
2024-02-19T09:00:32.904Z,33.48
2024-02-19T09:01:39.562Z,33.49
2024-02-19T09:02:46.260Z,33.52
2024-02-19T09:03:51.860Z,33.55
2024-02-19T09:04:58.584Z,33.57
2024-02-19T09:06:03.833Z,33.57
2024-02-19T09:07:10.572Z,33.57
2024-02-19T09:08:15.880Z,33.56
2024-02-19T09:09:22.498Z,33.54
2024-02-19T09:10:27.718Z,33.52
2024-02-19T09:11:34.342Z,33.52
2024-02-19T09:12:41.420Z,33.55
2024-02-19T09:13:48.000Z,33.60
2024-02-19T09:14:53.265Z,33.64
2024-02-19T09:15:58.522Z,33.64
2024-02-19T09:17:05.500Z,33.62
2024-02-19T09:18:10.871Z,33.59
2024-02-19T09:19:19.076Z,33.54
2024-02-19T09:20:24.425Z,33.54
2024-02-19T09:21:31.068Z,33.48
2024-02-19T09:22:36.337Z,33.39
2024-02-19T09:23:42.880Z,33.33
2024-02-19T09:24:50.304Z,33.21
2024-02-19T09:25:56.891Z,33.11
2024-02-19T09:27:02.155Z,33.06
2024-02-19T09:28:11.106Z,33.01
2024-02-19T09:29:17.620Z,32.96
2024-02-19T09:30:24.833Z,32.97
2024-02-19T09:31:30.099Z,32.98
2024-02-19T09:32:36.747Z,33.01
2024-02-19T09:33:42.169Z,33.00
2024-02-19T09:34:49.007Z,33.02
2024-02-19T09:35:54.368Z,33.06
2024-02-19T09:37:02.511Z,33.07
2024-02-19T09:38:08.244Z,33.08
2024-02-19T09:39:14.898Z,33.13
2024-02-19T09:40:20.942Z,33.15
2024-02-19T09:41:27.864Z,33.14
2024-02-19T09:42:33.420Z,33.12
2024-02-19T09:43:41.904Z,33.12
2024-02-19T09:44:47.432Z,33.04
2024-02-19T09:45:52.765Z,33.00
2024-02-19T09:47:01.256Z,32.93
2024-02-19T09:48:08.337Z,32.89
2024-02-19T09:49:16.424Z,32.84
2024-02-19T09:50:21.974Z,32.78
2024-02-19T09:51:36.584Z,32.74
2024-02-19T09:52:48.098Z,32.69
2024-02-19T09:53:55.468Z,32.64
2024-02-19T09:55:00.876Z,32.60
2024-02-19T09:56:09.631Z,32.60
2024-02-19T09:57:15.319Z,32.61
2024-02-19T09:58:22.070Z,32.59
2024-02-19T09:59:31.421Z,32.57
2024-02-19T10:00:38.270Z,32.56
2024-02-19T10:01:46.776Z,32.56
2024-02-19T10:02:56.021Z,32.59
2024-02-19T10:04:01.475Z,32.61
2024-02-19T10:05:10.227Z,32.63
2024-02-19T10:06:15.921Z,32.65
2024-02-19T10:07:23.338Z,32.65
2024-02-19T10:08:28.818Z,32.66
2024-02-19T10:09:34.213Z,32.67
2024-02-19T10:10:43.017Z,32.69
2024-02-19T10:11:49.818Z,32.73
2024-02-19T10:12:56.765Z,32.77
2024-02-19T10:14:02.180Z,32.78
2024-02-19T10:15:11.302Z,32.80
2024-02-19T10:16:16.885Z,32.73
2024-02-19T10:17:26.733Z,32.70
2024-02-19T10:18:32.283Z,32.62
2024-02-19T10:19:40.406Z,32.60
2024-02-19T10:20:48.441Z,32.56
2024-02-19T10:21:55.215Z,32.53
2024-02-19T10:23:00.678Z,32.48
2024-02-19T10:24:07.631Z,32.48
2024-02-19T10:25:14.888Z,32.46
2024-02-19T10:26:21.581Z,32.44
2024-02-19T10:27:26.946Z,32.38
2024-02-19T10:28:34.376Z,32.32
2024-02-19T10:29:39.651Z,32.29
2024-02-19T10:30:48.052Z,32.24
2024-02-19T10:31:53.385Z,32.21
2024-02-19T10:33:00.127Z,32.15
2024-02-19T10:34:05.852Z,32.13
2024-02-19T10:35:12.830Z,32.11
2024-02-19T10:36:21.189Z,32.08
2024-02-19T10:37:28.174Z,32.03
2024-02-19T10:38:33.514Z,31.97
2024-02-19T10:39:40.253Z,31.94
2024-02-19T10:40:45.621Z,31.90
2024-02-19T10:41:52.495Z,31.89
2024-02-19T10:42:58.635Z,31.86
2024-02-19T10:44:05.933Z,31.82
2024-02-19T10:45:12.560Z,31.78
2024-02-19T10:46:22.672Z,31.70
2024-02-19T10:47:28.575Z,31.67
2024-02-19T10:48:35.373Z,31.65
2024-02-19T10:49:40.884Z,31.61
2024-02-19T10:50:47.658Z,31.57
2024-02-19T10:51:53.932Z,31.53
2024-02-19T10:53:01.153Z,31.50
2024-02-19T10:54:07.149Z,31.46
2024-02-19T10:55:17.156Z,31.43
2024-02-19T10:56:25.218Z,31.39
2024-02-19T10:57:34.385Z,31.35
2024-02-19T10:58:39.762Z,31.33
2024-02-19T10:59:46.911Z,31.33
2024-02-19T11:00:53.655Z,31.29
2024-02-19T11:02:12.533Z,31.25
2024-02-19T11:03:17.999Z,31.24
2024-02-19T11:04:26.153Z,31.20
2024-02-19T11:05:37.115Z,31.16
2024-02-19T11:06:44.315Z,31.13
2024-02-19T11:07:49.722Z,31.10
2024-02-19T11:08:58.664Z,31.06
2024-02-19T11:10:07.212Z,31.02
2024-02-19T11:11:14.032Z,30.99
2024-02-19T11:12:20.802Z,30.96
2024-02-19T11:13:29.383Z,30.92
2024-02-19T11:14:35.212Z,30.88
2024-02-19T11:15:45.601Z,30.85
2024-02-19T11:16:51.116Z,30.83
2024-02-19T11:18:00.891Z,30.82
2024-02-19T11:19:06.575Z,30.81
2024-02-19T11:20:12.842Z,30.79
2024-02-19T11:21:19.553Z,30.75
2024-02-19T11:22:32.014Z,30.74
2024-02-19T11:23:38.720Z,30.72
2024-02-19T11:24:44.381Z,30.71
2024-02-19T11:25:51.302Z,30.69
2024-02-19T11:26:56.739Z,30.64
2024-02-19T11:28:05.011Z,30.60
2024-02-19T11:29:13.730Z,30.57
2024-02-19T11:30:22.509Z,30.54
2024-02-19T11:31:28.105Z,30.52
2024-02-19T11:32:35.154Z,30.48
2024-02-19T11:33:42.999Z,30.44
2024-02-19T11:34:49.853Z,30.41
2024-02-19T11:35:59.578Z,30.36
2024-02-19T11:37:07.985Z,30.36
2024-02-19T11:38:13.387Z,30.34
2024-02-19T11:39:20.318Z,30.33
2024-02-19T11:40:30.152Z,30.32
2024-02-19T11:41:36.844Z,30.32
2024-02-19T11:42:42.313Z,30.32
2024-02-19T11:43:49.061Z,30.30
2024-02-19T11:44:54.414Z,30.29
2024-02-19T11:46:01.218Z,30.26
2024-02-19T11:47:06.818Z,30.25
2024-02-19T11:48:13.980Z,30.23
2024-02-19T11:49:22.031Z,30.21
2024-02-19T11:50:30.377Z,30.18
2024-02-19T11:51:38.289Z,30.15
2024-02-19T11:52:44.925Z,30.14
2024-02-19T11:53:52.504Z,30.13
2024-02-19T11:54:57.910Z,30.11
2024-02-19T11:56:04.797Z,30.09
2024-02-19T11:57:12.520Z,30.05
2024-02-19T11:58:19.195Z,30.06
2024-02-19T11:59:24.654Z,30.04
2024-02-19T12:00:33.408Z,30.02
2024-02-19T12:01:39.622Z,29.98
2024-02-19T12:02:51.149Z,29.97
2024-02-19T12:03:56.507Z,29.94
2024-02-19T12:05:05.091Z,29.93
2024-02-19T12:06:12.183Z,29.93
2024-02-19T12:07:18.967Z,29.91
2024-02-19T12:08:25.291Z,29.87
2024-02-19T12:09:31.967Z,29.86
2024-02-19T12:10:37.434Z,29.83
2024-02-19T12:11:45.919Z,29.81
2024-02-19T12:12:53.278Z,29.78
2024-02-19T12:14:00.079Z,29.76
2024-02-19T12:15:05.975Z,29.75
2024-02-19T12:16:13.607Z,29.76
2024-02-19T12:17:19.111Z,29.74
2024-02-19T12:18:25.990Z,29.74
2024-02-19T12:19:31.642Z,29.71
2024-02-19T12:20:40.392Z,29.68
2024-02-19T12:21:45.835Z,29.65
2024-02-19T12:22:52.420Z,29.64
2024-02-19T12:23:57.955Z,29.61
2024-02-19T12:25:04.633Z,29.59
2024-02-19T12:26:10.034Z,29.57
2024-02-19T12:27:16.702Z,29.55
2024-02-19T12:28:22.001Z,29.56
2024-02-19T12:29:28.667Z,29.55
2024-02-19T12:30:34.015Z,29.54
2024-02-19T12:31:40.644Z,29.55
2024-02-19T12:32:48.557Z,29.55
2024-02-19T12:33:55.479Z,29.54
2024-02-19T12:35:01.144Z,29.50
2024-02-19T12:36:11.752Z,29.48
2024-02-19T12:37:18.109Z,29.49
2024-02-19T12:38:26.001Z,29.46
2024-02-19T12:39:33.060Z,29.44
2024-02-19T12:40:40.594Z,29.43
2024-02-19T12:41:49.559Z,29.40
2024-02-19T12:42:56.260Z,29.39
2024-02-19T12:44:01.610Z,29.39
2024-02-19T12:45:09.263Z,29.37
2024-02-19T12:46:15.338Z,29.37
2024-02-19T12:47:22.357Z,29.35
2024-02-19T12:48:27.803Z,29.34
2024-02-19T12:49:37.446Z,29.31
2024-02-19T12:50:44.567Z,29.30
2024-02-19T12:51:54.505Z,29.28
2024-02-19T12:53:00.057Z,29.27
2024-02-19T12:54:07.231Z,29.26
2024-02-19T12:55:17.752Z,29.27
2024-02-19T12:56:26.121Z,29.26
2024-02-19T12:57:31.442Z,29.25
2024-02-19T12:58:38.416Z,29.25
2024-02-19T12:59:43.830Z,29.24
2024-02-19T13:00:50.602Z,29.24
2024-02-19T13:01:56.149Z,29.21
2024-02-19T13:03:02.880Z,29.20
2024-02-19T13:04:08.867Z,29.17
2024-02-19T13:05:15.648Z,29.16
2024-02-19T13:06:22.083Z,29.14
2024-02-19T13:07:30.941Z,29.15
2024-02-19T13:08:36.430Z,29.13
2024-02-19T13:09:44.343Z,29.12
2024-02-19T13:10:50.382Z,29.10
2024-02-19T13:11:57.971Z,29.08
2024-02-19T13:13:04.590Z,29.04
2024-02-19T13:14:12.495Z,29.02
2024-02-19T13:15:17.912Z,29.01
2024-02-19T13:16:24.830Z,29.00
2024-02-19T13:17:39.344Z,29.00
2024-02-19T13:18:50.534Z,28.98
2024-02-19T13:19:56.049Z,28.99
2024-02-19T13:21:02.866Z,28.99
2024-02-19T13:22:08.456Z,29.00
2024-02-19T13:23:16.799Z,28.99
2024-02-19T13:24:22.183Z,28.98
2024-02-19T13:25:28.921Z,28.95
2024-02-19T13:26:34.287Z,28.95
2024-02-19T13:27:41.368Z,28.92
2024-02-19T13:28:46.692Z,28.93
2024-02-19T13:29:53.353Z,28.92
2024-02-19T13:30:58.712Z,28.91
2024-02-19T13:32:05.346Z,28.90
2024-02-19T13:33:10.925Z,28.90
2024-02-19T13:34:18.285Z,28.90
2024-02-19T13:35:23.947Z,28.89
2024-02-19T13:36:31.449Z,28.87
2024-02-19T13:37:37.337Z,28.86
2024-02-19T13:38:48.249Z,28.84
2024-02-19T13:39:54.342Z,28.83
2024-02-19T13:41:05.574Z,28.80
2024-02-19T13:42:11.892Z,28.79
2024-02-19T13:43:19.657Z,28.78
2024-02-19T13:44:25.902Z,28.76
2024-02-19T13:45:37.272Z,28.77
2024-02-19T13:46:46.793Z,28.76
2024-02-19T13:47:54.112Z,28.75
2024-02-19T13:49:03.469Z,28.73
2024-02-19T13:50:11.390Z,28.74
2024-02-19T13:51:18.536Z,28.74
2024-02-19T13:52:26.465Z,28.74
2024-02-19T13:53:32.462Z,28.73
2024-02-19T13:54:41.371Z,28.72
2024-02-19T13:55:46.951Z,28.70
2024-02-19T13:56:57.936Z,28.71
2024-02-19T13:58:03.811Z,28.70
2024-02-19T13:59:12.906Z,28.70
2024-02-19T14:00:18.660Z,28.70
2024-02-19T14:01:40.505Z,28.71
2024-02-19T14:02:47.726Z,28.71
2024-02-19T14:03:55.117Z,28.69
2024-02-19T14:05:01.194Z,28.68
2024-02-19T14:06:09.303Z,28.67
2024-02-19T14:07:15.216Z,28.65
2024-02-19T14:08:23.518Z,28.65
2024-02-19T14:09:29.338Z,28.64
2024-02-19T14:10:38.584Z,28.63
2024-02-19T14:11:44.340Z,28.64
2024-02-19T14:12:52.105Z,28.60
2024-02-19T14:14:02.109Z,28.60
2024-02-19T14:15:10.910Z,28.60
2024-02-19T14:16:16.331Z,28.62
2024-02-19T14:17:23.135Z,28.62
2024-02-19T14:18:28.520Z,28.62
2024-02-19T14:19:35.455Z,28.62
2024-02-19T14:20:40.976Z,28.62
2024-02-19T14:21:47.770Z,28.63
2024-02-19T14:22:53.425Z,28.62
2024-02-19T14:24:00.212Z,28.61
2024-02-19T14:25:06.813Z,28.62
2024-02-19T14:26:15.412Z,28.62
2024-02-19T14:27:20.901Z,28.64
2024-02-19T14:28:27.714Z,28.61
2024-02-19T14:29:34.606Z,28.61
2024-02-19T14:30:41.455Z,28.61
2024-02-19T14:31:46.834Z,28.61
2024-02-19T14:32:53.633Z,28.64
2024-02-19T14:33:59.055Z,28.65
2024-02-19T14:35:05.961Z,28.65
2024-02-19T14:36:11.853Z,28.65
2024-02-19T14:37:21.874Z,28.62
2024-02-19T14:38:27.728Z,28.63
2024-02-19T14:39:34.414Z,28.63
2024-02-19T14:40:40.187Z,28.63
2024-02-19T14:41:48.958Z,28.64
2024-02-19T14:42:54.460Z,28.65
2024-02-19T14:44:01.202Z,28.65
2024-02-19T14:45:08.597Z,28.64
2024-02-19T14:46:15.298Z,28.66
2024-02-19T14:47:20.759Z,28.64
2024-02-19T14:48:27.771Z,28.65
2024-02-19T14:49:33.617Z,28.66
2024-02-19T14:50:48.947Z,28.65
2024-02-19T14:51:54.630Z,28.65
2024-02-19T14:53:01.559Z,28.64
2024-02-19T14:54:07.140Z,28.65
2024-02-19T14:55:14.466Z,28.66
2024-02-19T14:56:19.974Z,28.66
2024-02-19T14:57:28.445Z,28.66
2024-02-19T14:58:35.396Z,28.65
2024-02-19T14:59:44.667Z,28.65
2024-02-19T15:00:51.721Z,28.65
2024-02-19T15:01:58.580Z,28.64
2024-02-19T15:03:03.971Z,28.63
2024-02-19T15:04:14.710Z,28.62
2024-02-19T15:05:22.746Z,28.61
2024-02-19T15:06:30.764Z,28.59
2024-02-19T15:07:36.597Z,28.60
2024-02-19T15:08:46.558Z,28.61
2024-02-19T15:09:51.979Z,28.59
2024-02-19T15:10:58.735Z,28.60
2024-02-19T15:12:04.142Z,28.60
2024-02-19T15:13:12.651Z,28.59
2024-02-19T15:14:19.722Z,28.60
2024-02-19T15:15:26.795Z,28.62
2024-02-19T15:16:32.303Z,28.62
2024-02-19T15:17:39.295Z,28.61
2024-02-19T15:18:44.917Z,28.60
2024-02-19T15:19:51.760Z,28.59
2024-02-19T15:20:57.151Z,28.56
2024-02-19T15:22:04.020Z,28.56
2024-02-19T15:23:09.415Z,28.54
2024-02-19T15:24:16.283Z,28.52
2024-02-19T15:25:22.075Z,28.50
2024-02-19T15:26:28.892Z,28.49
2024-02-19T15:27:34.668Z,28.51
2024-02-19T15:28:43.171Z,28.51
2024-02-19T15:29:48.512Z,28.51
2024-02-19T15:30:55.291Z,28.50
2024-02-19T15:32:00.758Z,28.49
2024-02-19T15:33:07.823Z,28.50
2024-02-19T15:34:13.407Z,28.49
2024-02-19T15:35:20.416Z,28.46
2024-02-19T15:36:25.882Z,28.44
2024-02-19T15:37:32.551Z,28.42
2024-02-19T15:38:37.886Z,28.41
2024-02-19T15:39:44.513Z,28.40
2024-02-19T15:40:49.845Z,28.38
2024-02-19T15:41:56.472Z,28.37
2024-02-19T15:43:01.845Z,28.38
2024-02-19T15:44:10.531Z,28.37
2024-02-19T15:45:16.296Z,28.38
2024-02-19T15:46:22.875Z,28.37
2024-02-19T15:47:28.243Z,28.37
2024-02-19T15:48:35.475Z,28.36
2024-02-19T15:49:41.028Z,28.37
2024-02-19T15:50:47.768Z,28.34
2024-02-19T15:51:53.442Z,28.34
2024-02-19T15:53:05.602Z,28.31
2024-02-19T15:54:12.525Z,28.31
2024-02-19T15:55:19.203Z,28.29
2024-02-19T15:56:24.571Z,28.29
2024-02-19T15:57:31.212Z,28.29
2024-02-19T15:58:36.894Z,28.31
2024-02-19T15:59:45.469Z,28.33
2024-02-19T16:00:51.252Z,28.33
2024-02-19T16:02:00.681Z,28.31
2024-02-19T16:03:06.628Z,28.31
2024-02-19T16:04:13.318Z,28.30
2024-02-19T16:05:18.918Z,28.27
2024-02-19T16:06:30.335Z,28.29
2024-02-19T16:07:35.689Z,28.25
2024-02-19T16:08:43.674Z,28.26
2024-02-19T16:09:49.028Z,28.24
2024-02-19T16:10:55.834Z,28.25
2024-02-19T16:12:01.282Z,28.23
2024-02-19T16:13:07.998Z,28.24
2024-02-19T16:14:13.417Z,28.23
2024-02-19T16:15:21.714Z,28.22
2024-02-19T16:16:27.089Z,28.21
2024-02-19T16:17:33.719Z,28.18
2024-02-19T16:18:39.525Z,28.16
2024-02-19T16:19:46.365Z,28.13
2024-02-19T16:20:54.905Z,28.12
2024-02-19T16:22:01.640Z,28.12
2024-02-19T16:23:07.301Z,28.13
2024-02-19T16:24:14.177Z,28.12
2024-02-19T16:25:19.557Z,28.13
2024-02-19T16:26:26.521Z,28.11
2024-02-19T16:27:31.981Z,28.10
2024-02-19T16:28:37.376Z,28.09
2024-02-19T16:29:44.122Z,28.10
2024-02-19T16:30:51.338Z,28.10
2024-02-19T16:31:57.963Z,28.10
2024-02-19T16:33:03.721Z,28.10
2024-02-19T16:34:10.562Z,28.13
2024-02-19T16:35:16.258Z,28.15
2024-02-19T16:36:26.560Z,28.14
2024-02-19T16:37:32.286Z,28.14
2024-02-19T16:38:40.082Z,28.15
2024-02-19T16:39:50.353Z,28.16
2024-02-19T16:40:58.211Z,28.16
2024-02-19T16:42:06.448Z,28.13
2024-02-19T16:43:13.720Z,28.11
2024-02-19T16:44:19.244Z,28.07
2024-02-19T16:45:26.511Z,28.05
2024-02-19T16:46:33.482Z,28.04
2024-02-19T16:47:40.201Z,28.05
2024-02-19T16:48:46.731Z,28.04
2024-02-19T16:49:53.508Z,28.03
2024-02-19T16:50:59.517Z,28.03
2024-02-19T16:52:06.064Z,28.01
2024-02-19T16:53:11.337Z,28.02
2024-02-19T16:54:22.469Z,28.02
2024-02-19T16:55:28.034Z,28.00
2024-02-19T16:56:34.647Z,27.98
2024-02-19T16:57:40.516Z,27.99
2024-02-19T16:58:47.233Z,27.96
2024-02-19T16:59:53.353Z,27.96
2024-02-19T17:01:00.460Z,27.96
2024-02-19T17:02:07.807Z,27.97
2024-02-19T17:03:16.485Z,27.98
2024-02-19T17:04:21.903Z,28.01
2024-02-19T17:05:28.729Z,28.02
2024-02-19T17:06:34.477Z,28.03
2024-02-19T17:07:41.313Z,28.04
2024-02-19T17:08:47.448Z,28.05
2024-02-19T17:09:52.640Z,28.05
2024-02-19T17:10:59.598Z,28.05
2024-02-19T17:12:06.744Z,28.07
2024-02-19T17:13:13.343Z,28.07
2024-02-19T17:14:19.313Z,28.05
2024-02-19T17:15:25.846Z,28.04
2024-02-19T17:16:31.737Z,28.04
2024-02-19T17:17:40.115Z,28.03
2024-02-19T17:18:45.474Z,28.01
2024-02-19T17:19:52.267Z,28.00
2024-02-19T17:20:57.610Z,27.99
2024-02-19T17:22:04.401Z,27.98
2024-02-19T17:23:15.983Z,27.97
2024-02-19T17:24:22.717Z,27.98
2024-02-19T17:25:28.221Z,27.96
2024-02-19T17:26:35.686Z,27.94
2024-02-19T17:27:40.958Z,27.92
2024-02-19T17:28:47.578Z,27.91
2024-02-19T17:29:52.836Z,27.89
2024-02-19T17:30:59.398Z,27.88
2024-02-19T17:32:04.713Z,27.86
2024-02-19T17:33:12.916Z,27.87
2024-02-19T17:34:19.705Z,27.87
2024-02-19T17:35:26.480Z,27.87
2024-02-19T17:36:31.779Z,27.87
2024-02-19T17:37:38.393Z,27.89
2024-02-19T17:38:43.966Z,27.90
2024-02-19T17:39:50.913Z,27.90
2024-02-19T17:41:00.711Z,27.91
2024-02-19T17:42:07.510Z,27.90
2024-02-19T17:43:14.311Z,27.91
2024-02-19T17:44:23.945Z,27.91
2024-02-19T17:45:29.334Z,27.90
2024-02-19T17:46:36.127Z,27.90
2024-02-19T17:47:41.505Z,27.89
2024-02-19T17:48:50.779Z,27.89
2024-02-19T17:49:56.670Z,27.90
2024-02-19T17:51:03.984Z,27.90
2024-02-19T17:52:10.075Z,27.92
2024-02-19T17:53:16.763Z,27.94
2024-02-19T17:54:22.652Z,27.94
2024-02-19T17:55:29.284Z,27.95
2024-02-19T17:56:34.595Z,27.96
2024-02-19T17:57:41.742Z,27.96
2024-02-19T17:58:47.087Z,27.96
2024-02-19T17:59:53.808Z,27.94
2024-02-19T18:00:59.158Z,27.93
2024-02-19T18:02:06.437Z,27.93
2024-02-19T18:03:11.945Z,27.91
2024-02-19T18:04:20.545Z,27.90
2024-02-19T18:05:27.063Z,27.86
2024-02-19T18:06:35.177Z,27.86
2024-02-19T18:07:42.324Z,27.85
2024-02-19T18:08:51.842Z,27.85
2024-02-19T18:09:58.138Z,27.84
2024-02-19T18:11:04.933Z,27.83
2024-02-19T18:12:11.213Z,27.82
2024-02-19T18:13:19.328Z,27.82
2024-02-19T18:14:24.832Z,27.79
2024-02-19T18:15:32.025Z,27.78
2024-02-19T18:16:40.534Z,27.78
2024-02-19T18:17:47.252Z,27.76
2024-02-19T18:18:52.944Z,27.76
2024-02-19T18:20:01.591Z,27.73
2024-02-19T18:21:11.194Z,27.71
2024-02-19T18:22:17.873Z,27.71
2024-02-19T18:23:24.424Z,27.66
2024-02-19T18:24:31.132Z,27.63
2024-02-19T18:25:36.478Z,27.59
2024-02-19T18:26:43.903Z,27.57
2024-02-19T18:27:49.221Z,27.55
2024-02-19T18:28:57.488Z,27.53
2024-02-19T18:30:03.044Z,27.52
2024-02-19T18:31:12.834Z,27.50
2024-02-19T18:32:18.994Z,27.50
2024-02-19T18:33:27.902Z,27.50
2024-02-19T18:34:37.012Z,27.49
2024-02-19T18:35:45.546Z,27.50
2024-02-19T18:36:51.208Z,27.50
2024-02-19T18:37:57.840Z,27.49
2024-02-19T18:39:03.188Z,27.49
2024-02-19T18:40:11.171Z,27.50
2024-02-19T18:41:16.617Z,27.50
2024-02-19T18:42:24.520Z,27.53
2024-02-19T18:43:30.097Z,27.56
2024-02-19T18:44:36.779Z,27.58
2024-02-19T18:45:43.852Z,27.59
2024-02-19T18:46:50.471Z,27.60
2024-02-19T18:47:55.895Z,27.60
2024-02-19T18:49:03.900Z,27.59
2024-02-19T18:50:10.421Z,27.58
2024-02-19T18:51:18.733Z,27.58
2024-02-19T18:52:24.127Z,27.59
2024-02-19T18:53:30.825Z,27.59
2024-02-19T18:54:36.449Z,27.60
2024-02-19T18:55:43.204Z,27.59
2024-02-19T18:56:48.670Z,27.61
2024-02-19T18:57:54.062Z,27.62
2024-02-19T18:59:00.726Z,27.61
2024-02-19T19:00:11.297Z,27.58
2024-02-19T19:01:17.983Z,27.57
2024-02-19T19:02:23.355Z,27.56
2024-02-19T19:03:30.120Z,27.58
2024-02-19T19:04:35.998Z,27.58
2024-02-19T19:05:42.914Z,27.58
2024-02-19T19:06:49.959Z,27.59
2024-02-19T19:07:57.016Z,27.60
2024-02-19T19:09:07.697Z,27.60
2024-02-19T19:10:14.672Z,27.60
2024-02-19T19:11:20.105Z,27.61
2024-02-19T19:12:26.988Z,27.62
2024-02-19T19:13:34.475Z,27.63
2024-02-19T19:14:41.243Z,27.64
2024-02-19T19:15:46.633Z,27.63
2024-02-19T19:16:54.190Z,27.63
2024-02-19T19:18:01.190Z,27.61
2024-02-19T19:19:10.185Z,27.59
2024-02-19T19:20:16.022Z,27.57
2024-02-19T19:21:23.069Z,27.57
2024-02-19T19:22:31.229Z,27.56
2024-02-19T19:23:37.883Z,27.55
2024-02-19T19:24:44.841Z,27.52
2024-02-19T19:25:51.534Z,27.48
2024-02-19T19:26:56.881Z,27.47
2024-02-19T19:28:03.696Z,27.47
2024-02-19T19:29:10.997Z,27.47
2024-02-19T19:30:17.790Z,27.45
2024-02-19T19:31:23.912Z,27.44
2024-02-19T19:32:31.608Z,27.45
2024-02-19T19:33:37.096Z,27.46
2024-02-19T19:34:44.023Z,27.47
2024-02-19T19:35:50.680Z,27.43
2024-02-19T19:36:57.950Z,27.42
2024-02-19T19:38:05.924Z,27.39
2024-02-19T19:39:13.665Z,27.36
2024-02-19T19:40:19.212Z,27.35
2024-02-19T19:41:25.896Z,27.34
2024-02-19T19:42:31.211Z,27.32
2024-02-19T19:43:38.317Z,27.30
2024-02-19T19:44:43.710Z,27.27
2024-02-19T19:45:51.810Z,27.24
2024-02-19T19:46:59.060Z,27.21
2024-02-19T19:48:05.784Z,27.20
2024-02-19T19:49:11.269Z,27.20
2024-02-19T19:50:21.086Z,27.20
2024-02-19T19:51:26.415Z,27.21
2024-02-19T19:52:35.690Z,27.21
2024-02-19T19:53:43.024Z,27.20
2024-02-19T19:54:51.875Z,27.19
2024-02-19T19:55:57.907Z,27.17
2024-02-19T19:57:04.643Z,27.17
2024-02-19T19:58:17.311Z,27.19
2024-02-19T19:59:28.879Z,27.21
2024-02-19T20:00:34.262Z,27.20
2024-02-19T20:01:41.386Z,27.24
2024-02-19T20:02:48.094Z,27.27
2024-02-19T20:03:54.807Z,27.31
2024-02-19T20:05:01.281Z,27.33
2024-02-19T20:06:08.365Z,27.34
2024-02-19T20:07:13.825Z,27.36
2024-02-19T20:08:20.489Z,27.37
2024-02-19T20:09:27.959Z,27.37
2024-02-19T20:10:35.024Z,27.38
2024-02-19T20:11:40.512Z,27.38
2024-02-19T20:12:47.251Z,27.39
2024-02-19T20:13:52.784Z,27.40
2024-02-19T20:15:00.716Z,27.41
2024-02-19T20:16:06.808Z,27.42
2024-02-19T20:17:14.000Z,27.42
2024-02-19T20:18:19.703Z,27.41
2024-02-19T20:19:26.631Z,27.40
2024-02-19T20:20:32.041Z,27.42
2024-02-19T20:21:38.805Z,27.41
2024-02-19T20:22:44.159Z,27.40
2024-02-19T20:23:50.905Z,27.40
2024-02-19T20:24:57.906Z,27.38
2024-02-19T20:26:04.535Z,27.36
2024-02-19T20:27:10.052Z,27.35
2024-02-19T20:28:16.945Z,27.35
2024-02-19T20:29:22.590Z,27.35
2024-02-19T20:30:29.216Z,27.34
2024-02-19T20:31:34.549Z,27.33
2024-02-19T20:32:41.437Z,27.32
2024-02-19T20:33:47.032Z,27.32
2024-02-19T20:34:54.124Z,27.30
2024-02-19T20:36:00.179Z,27.29
2024-02-19T20:37:07.101Z,27.28
2024-02-19T20:38:12.565Z,27.29
2024-02-19T20:39:19.183Z,27.27
2024-02-19T20:40:26.276Z,27.27
2024-02-19T20:41:32.913Z,27.27
2024-02-19T20:42:39.408Z,27.29
2024-02-19T20:43:46.339Z,27.30
2024-02-19T20:44:51.573Z,27.29
2024-02-19T20:45:58.344Z,27.27
2024-02-19T20:47:03.708Z,27.26
2024-02-19T20:48:10.949Z,27.26
2024-02-19T20:49:16.446Z,27.26
2024-02-19T20:50:23.261Z,27.27
2024-02-19T20:51:28.730Z,27.26
2024-02-19T20:52:35.433Z,27.26
2024-02-19T20:53:41.570Z,27.27
2024-02-19T20:54:48.287Z,27.26
2024-02-19T20:55:55.360Z,27.24
2024-02-19T20:57:02.067Z,27.23
2024-02-19T20:58:07.665Z,27.22